Time;durP1;ratioP1;P1;durP2;ratioP2;P2;SDS_P1;SDS_P2;PMS_P1;PMS_P2;Temp;Humidity;BMP_temperature;BMP_pressure;BME280_temperature;BME280_humidity;BME280_pressure;Samples;Min_cycle;Max_cycle;Signal;HPM_P1;HPM_P2
2023/03/07 00:00:21;;;;;;;;;;;;;;;;;;2208975;67;1802;-23
2023/03/07 00:02:51;;;;;;;;;;;;;;;;;;2208611;67;1298;-23
2023/03/07 00:05:21;;;;;;;;;;;;;;;;;;2209475;67;1979;-22
2023/03/07 00:07:51;;;;;;;;;;;;;;;;;;2209304;67;1325;-22
2023/03/07 00:10:21;;;;;;;;;;;;;;;;;;2208817;67;1654;-22
2023/03/07 00:12:52;;;;;;;;;;;;;;;;;;2209363;59;1294;-22
2023/03/07 00:15:22;;;;;;;;;;;;;;;;;;2209259;67;1791;-22
2023/03/07 00:17:53;;;;;;;;;;;;;;;;;;2209054;67;1197;-22
2023/03/07 00:20:23;;;;;;;;;;;;;;;;;;2208438;67;1108;-22
2023/03/07 00:22:53;;;;;;;;;;;;;;;;;;2210025;67;1542;-23
2023/03/07 00:25:23;;;;;;;;;;;;;;;;;;2211394;67;1917;-23
2023/03/07 00:27:53;;;;;;;;;;;;;;;;;;2211829;59;2021;-23
2023/03/07 00:30:27;;;;;;;;;;;;;;;;;;2209207;67;1414;-23
2023/03/07 00:32:57;;;;;;;;;;;;;;;;;;2209951;67;1219;-23
2023/03/07 00:35:28;;;;;;;;;;;;;;;;;;2209385;67;1239;-23
2023/03/07 00:37:58;;;;;;;;;;;;;;;;;;2211233;66;1136;-23
2023/03/07 00:40:28;;;;;;;;;;;;;;;;;;2209822;67;1444;-23
2023/03/07 00:42:58;;;;;;;;;;;;;;;;;;2208953;67;1217;-22
2023/03/07 00:45:28;;;;;;;;;;;;;;;;;;2209084;67;1901;-22
2023/03/07 00:47:59;;;;;;;;;;;;;;;;;;2208628;67;1679;-22
2023/03/07 00:50:29;;;;;;;;;;;;;;;;;;2212654;66;1156;-22
2023/03/07 00:53:02;;;;;;;;;;;;;;;;;;2208575;67;1245;-22
2023/03/07 00:55:32;;;;;;;;;;;;;;;;;;2209131;67;2098;-22
2023/03/07 00:58:03;;;;;;;;;;;;;;;;;;2209072;59;1644;-22
2023/03/07 01:00:33;;;;;;;;;;;;;;;;;;2209423;67;1331;-22
2023/03/07 01:03:03;;;;;;;;;;;;;;;;;;2209620;67;1661;-24
2023/03/07 01:05:37;;;;;;;;;;;;;;;;;;2209505;59;1927;-24
2023/03/07 01:08:07;;;;;;;;;;;;;;;;;;2212158;67;1133;-22
2023/03/07 01:10:37;;;;;;;;;;;;;;;;;;2211668;67;1980;-22
2023/03/07 01:13:11;;;;;;;;;;;;;;;;;;2209718;59;1400;-22
2023/03/07 01:15:41;;;;;;;;;;;;;;;;;;2209150;67;1226;-22
2023/03/07 01:18:11;;;;;;;;;;;;;;;;;;2209116;67;1222;-22
2023/03/07 01:20:42;;;;;;;;;;;;;;;;;;2209138;67;1802;-22
2023/03/07 01:23:12;;;;;;;;;;;;;;;;;;2208888;67;1728;-22
2023/03/07 01:25:42;;;;;;;;;;;;;;;;;;2209181;67;1933;-22
2023/03/07 01:28:13;;;;;;;;;;;;;;;;;;2209332;67;1098;-22
2023/03/07 01:30:43;;;;;;;;;;;;;;;;;;2208934;67;1156;-22
2023/03/07 01:33:14;;;;;;;;;;;;;;;;;;2208544;59;1748;-22
2023/03/07 01:35:44;;;;;;;;;;;;;;;;;;2209182;67;1189;-22
2023/03/07 01:38:14;;;;;;;;;;;;;;;;;;2209844;67;1053;-22
2023/03/07 01:40:44;;;;;;;;;;;;;;;;;;2209550;67;1415;-22
2023/03/07 01:43:21;;;;;;;;;;;;;;;;;;2209297;59;1207;-22
2023/03/07 01:46:20;;;;;;;;;;;;;;;;;;2209578;67;1932;-22
2023/03/07 01:48:56;;;;;;;;;;;;;;;;;;2210308;67;1881;-23
2023/03/07 01:51:27;;;;;;;;;;;;;;;;;;2209578;67;1115;-25
2023/03/07 01:53:59;;;;;;;;;;;;;;;;;;2209866;67;1651;-24
2023/03/07 01:56:30;;;;;;;;;;;;;;;;;;2209654;67;1142;-24
2023/03/07 01:59:00;;;;;;;;;;;;;;;;;;2210255;67;1170;-24
2023/03/07 02:01:31;;;;;;;;;;;;;;;;;;2209263;67;1107;-24
2023/03/07 02:04:07;;;;;;;;;;;;;;;;;;2208956;67;1230;-24
2023/03/07 02:06:38;;;;;;;;;;;;;;;;;;2209625;67;1928;-24
2023/03/07 02:09:12;;;;;;;;;;;;;;;;;;2210690;66;1669;-24
2023/03/07 02:11:44;;;;;;;;;;;;;;;;;;2209884;67;1742;-24
2023/03/07 02:14:14;;;;;;;;;;;;;;;;;;2209707;59;1135;-22
2023/03/07 02:16:44;;;;;;;;;;;;;;;;;;2209578;67;1576;-22
2023/03/07 02:19:29;;;;;;;;;;;;;;;;;;2209816;67;1065;-22
2023/03/07 02:22:10;;;;;;;;;;;;;;;;;;2209765;67;1382;-22
2023/03/07 02:24:47;;;;;;;;;;;;;;;;;;2209404;67;1988;-22
2023/03/07 02:27:17;;;;;;;;;;;;;;;;;;2209170;67;1768;-22
2023/03/07 02:29:51;;;;;;;;;;;;;;;;;;2209677;67;1264;-22
2023/03/07 02:32:21;;;;;;;;;;;;;;;;;;2209680;67;1263;-22
2023/03/07 02:34:52;;;;;;;;;;;;;;;;;;2209776;59;1064;-22
2023/03/07 02:37:33;;;;;;;;;;;;;;;;;;2208888;67;1185;-22
2023/03/07 02:40:05;;;;;;;;;;;;;;;;;;2209395;67;1406;-22
2023/03/07 02:42:37;;;;;;;;;;;;;;;;;;2209044;67;1252;-22
2023/03/07 02:45:10;;;;;;;;;;;;;;;;;;2210014;67;1932;-22
2023/03/07 02:47:42;;;;;;;;;;;;;;;;;;2209449;67;1440;-22
2023/03/07 02:50:15;;;;;;;;;;;;;;;;;;2209173;59;1232;-22
2023/03/07 02:52:45;;;;;;;;;;;;;;;;;;2209330;67;1323;-22
2023/03/07 02:55:15;;;;;;;;;;;;;;;;;;2209865;67;1242;-22
2023/03/07 02:57:46;;;;;;;;;;;;;;;;;;2210021;67;1604;-22
2023/03/07 03:00:16;;;;;;;;;;;;;;;;;;2209030;67;1380;-22
2023/03/07 03:02:46;;;;;;;;;;;;;;;;;;2209700;67;1758;-22
2023/03/07 03:05:17;;;;;;;;;;;;;;;;;;2209351;67;2016;-22
2023/03/07 03:07:47;;;;;;;;;;;;;;;;;;2209872;59;1330;-22
2023/03/07 03:10:17;;;;;;;;;;;;;;;;;;2209671;67;1302;-22
2023/03/07 03:12:48;;;;;;;;;;;;;;;;;;2209653;59;1272;-22
2023/03/07 03:15:18;;;;;;;;;;;;;;;;;;2209451;67;1147;-22
2023/03/07 03:17:48;;;;;;;;;;;;;;;;;;2210856;67;1787;-22
2023/03/07 03:20:18;;;;;;;;;;;;;;;;;;2209971;67;1234;-23
2023/03/07 03:22:49;;;;;;;;;;;;;;;;;;2211502;67;1379;-25
2023/03/07 03:25:22;;;;;;;;;;;;;;;;;;2210605;67;1944;-25
2023/03/07 03:27:52;;;;;;;;;;;;;;;;;;2209449;67;1133;-25
2023/03/07 03:30:23;;;;;;;;;;;;;;;;;;2205871;67;1237;-25
2023/03/07 03:32:53;;;;;;;;;;;;;;;;;;2209090;67;1469;-25
2023/03/07 03:35:23;;;;;;;;;;;;;;;;;;2209498;67;1346;-25
2023/03/07 03:37:54;;;;;;;;;;;;;;;;;;2209920;67;1355;-25
2023/03/07 03:40:24;;;;;;;;;;;;;;;;;;2208085;67;1772;-25
2023/03/07 03:42:55;;;;;;;;;;;;;;;;;;2209112;67;1516;-24
2023/03/07 03:45:25;;;;;;;;;;;;;;;;;;2209197;67;1982;-24
2023/03/07 03:47:56;;;;;;;;;;;;;;;;;;2209048;59;1230;-24
2023/03/07 03:50:26;;;;;;;;;;;;;;;;;;2208848;59;1165;-24
2023/03/07 03:52:56;;;;;;;;;;;;;;;;;;2210312;67;1735;-24
2023/03/07 03:55:27;;;;;;;;;;;;;;;;;;2209227;67;1535;-24
2023/03/07 03:57:57;;;;;;;;;;;;;;;;;;2210059;59;1721;-22
2023/03/07 04:00:31;;;;;;;;;;;;;;;;;;2209349;59;1347;-22
2023/03/07 04:03:02;;;;;;;;;;;;;;;;;;2209271;67;1768;-22
2023/03/07 04:05:33;;;;;;;;;;;;;;;;;;2211864;67;2306;-22
2023/03/07 04:08:03;;;;;;;;;;;;;;;;;;2212162;67;1292;-22
2023/03/07 04:10:33;;;;;;;;;;;;;;;;;;2210153;67;1868;-22
2023/03/07 04:13:04;;;;;;;;;;;;;;;;;;2209195;59;1220;-22
2023/03/07 04:15:34;;;;;;;;;;;;;;;;;;2209432;67;1512;-22
2023/03/07 04:18:04;;;;;;;;;;;;;;;;;;2209348;67;1092;-22
2023/03/07 04:20:35;;;;;;;;;;;;;;;;;;2208470;67;1562;-22
2023/03/07 04:23:05;;;;;;;;;;;;;;;;;;2208790;67;1585;-22
2023/03/07 04:25:36;;;;;;;;;;;;;;;;;;2209923;67;1996;-22
2023/03/07 04:28:06;;;;;;;;;;;;;;;;;;2210171;67;1136;-22
2023/03/07 04:30:36;;;;;;;;;;;;;;;;;;2209448;67;2379;-22
2023/03/07 04:33:06;;;;;;;;;;;;;;;;;;2209425;67;1494;-22
2023/03/07 04:35:37;;;;;;;;;;;;;;;;;;2209718;67;1523;-22
2023/03/07 04:38:08;;;;;;;;;;;;;;;;;;2209941;67;1663;-22
2023/03/07 04:40:38;;;;;;;;;;;;;;;;;;2209533;67;1124;-22
2023/03/07 04:43:08;;;;;;;;;;;;;;;;;;2209397;67;1303;-22
2023/03/07 04:45:38;;;;;;;;;;;;;;;;;;2208940;67;1987;-22
2023/03/07 04:48:09;;;;;;;;;;;;;;;;;;2210535;67;1848;-22
2023/03/07 04:50:39;;;;;;;;;;;;;;;;;;2209614;59;1783;-22
2023/03/07 04:53:09;;;;;;;;;;;;;;;;;;2209767;67;1219;-22
2023/03/07 04:55:39;;;;;;;;;;;;;;;;;;2210064;59;1840;-23
2023/03/07 04:58:11;;;;;;;;;;;;;;;;;;2209607;67;1216;-24
2023/03/07 05:00:42;;;;;;;;;;;;;;;;;;2211851;59;1373;-24
2023/03/07 05:03:13;;;;;;;;;;;;;;;;;;2209013;67;1509;-24
2023/03/07 05:05:44;;;;;;;;;;;;;;;;;;2209309;67;1940;-24
2023/03/07 05:08:14;;;;;;;;;;;;;;;;;;2209326;67;1225;-24
2023/03/07 05:10:44;;;;;;;;;;;;;;;;;;2208778;67;1543;-24
2023/03/07 05:13:14;;;;;;;;;;;;;;;;;;2210437;59;1255;-24
2023/03/07 05:18:21;;;;;;;;;;;;;;;;;;2212798;59;1699;-15
2023/03/07 05:20:51;;;;;;;;;;;;;;;;;;2214678;66;1444;-15
2023/03/07 05:23:21;;;;;;;;;;;;;;;;;;2214047;66;1203;-15
2023/03/07 05:25:52;;;;;;;;;;;;;;;;;;2214537;59;1990;-14
2023/03/07 05:28:22;;;;;;;;;;;;;;;;;;2214715;66;1143;-14
2023/03/07 05:30:55;;;;;;;;;;;;;;;;;;2214491;66;1238;-16
2023/03/07 05:33:25;;;;;;;;;;;;;;;;;;2214661;67;1127;-15
2023/03/07 05:36:00;;;;;;;;;;;;;;;;;;2214966;66;1229;-14
2023/03/07 05:38:30;;;;;;;;;;;;;;;;;;2217290;66;1490;-15
2023/03/07 05:41:00;;;;;;;;;;;;;;;;;;2214484;66;1415;-18
2023/03/07 05:43:30;;;;;;;;;;;;;;;;;;2214030;66;1738;-17
2023/03/07 05:46:01;;;;;;;;;;;;;;;;;;2214848;59;1947;-17
2023/03/07 05:48:31;;;;;;;;;;;;;;;;;;2214781;66;1150;-18
2023/03/07 05:51:01;;;;;;;;;;;;;;;;;;2214537;66;1621;-16
2023/03/07 05:53:32;;;;;;;;;;;;;;;;;;2213832;66;1424;-15
2023/03/07 05:56:02;;;;;;;;;;;;;;;;;;2215187;66;1219;-17
2023/03/07 05:58:32;;;;;;;;;;;;;;;;;;2214530;59;1166;-17
2023/03/07 06:01:06;;;;;;;;;;;;;;;;;;2214515;66;1231;-15
2023/03/07 06:03:36;;;;;;;;;;;;;;;;;;2214550;66;1197;-16
2023/03/07 06:06:06;;;;;;;;;;;;;;;;;;2215556;66;1933;-16
2023/03/07 06:08:37;;;;;;;;;;;;;;;;;;2213805;66;1616;-16
2023/03/07 06:11:08;;;;;;;;;;;;;;;;;;2214642;66;1183;-16
2023/03/07 06:13:38;;;;;;;;;;;;;;;;;;2214763;66;1134;-15
2023/03/07 06:16:09;;;;;;;;;;;;;;;;;;2214824;66;1400;-28
2023/03/07 06:18:42;;;;;;;;;;;;;;;;;;2214299;66;1326;-16
2023/03/07 06:21:14;;;;;;;;;;;;;;;;;;2214769;66;1108;-18
2023/03/07 06:23:45;;;;;;;;;;;;;;;;;;2214189;66;1796;-16
2023/03/07 06:26:15;;;;;;;;;;;;;;;;;;2213539;59;1996;-18
2023/03/07 06:28:45;;;;;;;;;;;;;;;;;;2213394;59;1746;-17
2023/03/07 06:31:16;;;;;;;;;;;;;;;;;;2214375;66;1130;-16
2023/03/07 06:33:47;;;;;;;;;;;;;;;;;;2214238;66;1482;-16
2023/03/07 06:36:18;;;;;;;;;;;;;;;;;;2214280;66;1256;-14
2023/03/07 06:38:48;;;;;;;;;;;;;;;;;;2214349;59;1559;-14
2023/03/07 06:41:19;;;;;;;;;;;;;;;;;;2214235;67;1160;-14
2023/03/07 06:43:50;;;;;;;;;;;;;;;;;;2214629;66;1653;-15
2023/03/07 06:46:21;;;;;;;;;;;;;;;;;;2213407;66;1942;-15
2023/03/07 06:48:51;;;;;;;;;;;;;;;;;;2214109;59;1961;-15
2023/03/07 06:51:21;;;;;;;;;;;;;;;;;;2214805;58;1248;-14
2023/03/07 06:53:52;;;;;;;;;;;;;;;;;;2214506;66;1130;-15
2023/03/07 06:56:22;;;;;;;;;;;;;;;;;;2214619;66;1202;-15
2023/03/07 06:58:52;;;;;;;;;;;;;;;;;;2213790;67;1331;-13
2023/03/07 07:01:22;;;;;;;;;;;;;;;;;;2214114;66;1819;-14
2023/03/07 07:03:53;;;;;;;;;;;;;;;;;;2213445;66;1323;-14
2023/03/07 07:06:23;;;;;;;;;;;;;;;;;;2213267;66;1949;-13
2023/03/07 07:08:57;;;;;;;;;;;;;;;;;;2214578;59;1614;-14
2023/03/07 07:11:27;;;;;;;;;;;;;;;;;;2214795;66;1210;-14
2023/03/07 07:13:58;;;;;;;;;;;;;;;;;;2214651;66;1428;-15
2023/03/07 07:16:28;;;;;;;;;;;;;;;;;;2217153;58;1704;-14
2023/03/07 07:18:58;;;;;;;;;;;;;;;;;;2214242;66;1701;-14
2023/03/07 07:21:28;;;;;;;;;;;;;;;;;;2214668;67;1105;-15
2023/03/07 07:23:59;;;;;;;;;;;;;;;;;;2216818;66;1747;-16
2023/03/07 07:26:29;;;;;;;;;;;;;;;;;;2215188;66;1936;-16
2023/03/07 07:28:59;;;;;;;;;;;;;;;;;;2214551;66;1425;-18
2023/03/07 07:31:30;;;;;;;;;;;;;;;;;;2214628;66;1083;-16
2023/03/07 07:34:00;;;;;;;;;;;;;;;;;;2215496;66;1585;-16
2023/03/07 07:36:31;;;;;;;;;;;;;;;;;;2214386;66;1259;-17
2023/03/07 07:39:04;;;;;;;;;;;;;;;;;;2214425;66;1379;-16
2023/03/07 07:41:35;;;;;;;;;;;;;;;;;;2214522;66;1123;-17
2023/03/07 07:44:05;;;;;;;;;;;;;;;;;;2214968;66;1680;-17
2023/03/07 07:46:35;;;;;;;;;;;;;;;;;;2214295;59;1990;-17
2023/03/07 07:49:06;;;;;;;;;;;;;;;;;;2214292;67;1138;-16
2023/03/07 07:51:36;;;;;;;;;;;;;;;;;;2214561;60;1326;-17
2023/03/07 07:54:08;;;;;;;;;;;;;;;;;;2214145;66;1192;-25
2023/03/07 07:56:38;;;;;;;;;;;;;;;;;;2216772;66;1258;-17
2023/03/07 07:59:08;;;;;;;;;;;;;;;;;;2214121;59;1276;-16
2023/03/07 08:01:38;;;;;;;;;;;;;;;;;;2213825;66;1113;-17
2023/03/07 08:04:10;;;;;;;;;;;;;;;;;;2213783;59;1191;-15
2023/03/07 08:06:40;;;;;;;;;;;;;;;;;;2213863;66;1941;-16
2023/03/07 08:09:10;;;;;;;;;;;;;;;;;;2214328;66;1329;-17
2023/03/07 08:11:41;;;;;;;;;;;;;;;;;;2214206;66;1363;-17
2023/03/07 08:14:12;;;;;;;;;;;;;;;;;;2214657;66;1385;-16
2023/03/07 08:16:42;;;;;;;;;;;;;;;;;;2213982;59;1186;-16
2023/03/07 08:19:12;;;;;;;;;;;;;;;;;;2214447;66;1154;-16
2023/03/07 08:21:42;;;;;;;;;;;;;;;;;;2214413;66;1637;-16
2023/03/07 08:24:13;;;;;;;;;;;;;;;;;;2214607;66;1842;-16
2023/03/07 08:26:43;;;;;;;;;;;;;;;;;;2213975;66;1932;-17
2023/03/07 08:29:13;;;;;;;;;;;;;;;;;;2214763;66;1988;-16
2023/03/07 08:31:44;;;;;;;;;;;;;;;;;;2214287;66;1862;-17
2023/03/07 08:34:14;;;;;;;;;;;;;;;;;;2217006;66;1117;-16
2023/03/07 08:36:45;;;;;;;;;;;;;;;;;;2213882;59;2359;-15
2023/03/07 08:39:15;;;;;;;;;;;;;;;;;;2213589;66;1451;-16
2023/03/07 08:41:46;;;;;;;;;;;;;;;;;;2214352;66;1260;-16
2023/03/07 08:44:16;;;;;;;;;;;;;;;;;;2214406;66;1275;-16
2023/03/07 08:46:46;;;;;;;;;;;;;;;;;;2214396;67;1982;-16
2023/03/07 08:49:16;;;;;;;;;;;;;;;;;;2214280;66;1741;-16
2023/03/07 08:51:47;;;;;;;;;;;;;;;;;;2214848;66;1191;-16
2023/03/07 08:54:17;;;;;;;;;;;;;;;;;;2215350;66;1285;-16
2023/03/07 08:56:47;;;;;;;;;;;;;;;;;;2215025;66;1274;-15
2023/03/07 08:59:18;;;;;;;;;;;;;;;;;;2214945;66;1300;-16
2023/03/07 09:01:48;;;;;;;;;;;;;;;;;;2214819;66;1112;-15
2023/03/07 09:04:18;;;;;;;;;;;;;;;;;;2215081;66;1206;-17
2023/03/07 09:06:51;;;;;;;;;;;;;;;;;;2214567;66;1936;-17
2023/03/07 09:09:22;;;;;;;;;;;;;;;;;;2217272;66;1279;-16
2023/03/07 09:11:52;;;;;;;;;;;;;;;;;;2214334;66;1668;-27
2023/03/07 09:14:22;;;;;;;;;;;;;;;;;;2215232;66;1772;-17
2023/03/07 09:16:53;;;;;;;;;;;;;;;;;;2215058;59;1795;-16
2023/03/07 09:19:26;;;;;;;;;;;;;;;;;;2215052;66;1421;-15
2023/03/07 09:21:56;;;;;;;;;;;;;;;;;;2215041;66;1371;-17
2023/03/07 09:24:26;;;;;;;;;;;;;;;;;;2214899;66;1635;-17
2023/03/07 09:26:57;;;;;;;;;;;;;;;;;;2214728;66;1943;-17
2023/03/07 09:29:27;;;;;;;;;;;;;;;;;;2215050;66;1448;-16
2023/03/07 09:31:57;;;;;;;;;;;;;;;;;;2214446;66;1297;-17
2023/03/07 09:34:27;;;;;;;;;;;;;;;;;;2214662;66;1210;-15
2023/03/07 09:36:58;;;;;;;;;;;;;;;;;;2214706;66;1403;-16
2023/03/07 09:39:28;;;;;;;;;;;;;;;;;;2215362;66;1124;-16
2023/03/07 09:42:05;;;;;;;;;;;;;;;;;;2214760;66;1157;-16
2023/03/07 09:45:05;;;;;;;;;;;;;;;;;;2214626;66;1978;-19
2023/03/07 09:47:35;;;;;;;;;;;;;;;;;;2213519;66;2063;-17
2023/03/07 09:50:24;;;;;;;;;;;;;;;;;;2214681;66;1204;-17
2023/03/07 09:52:59;;;;;;;;;;;;;;;;;;2214945;66;1417;-16
2023/03/07 09:55:30;;;;;;;;;;;;;;;;;;2215246;66;1791;-16
2023/03/07 09:58:13;;;;;;;;;;;;;;;;;;2213458;59;1613;-16
2023/03/07 10:00:44;;;;;;;;;;;;;;;;;;2214563;66;1258;-16
2023/03/07 10:03:25;;;;;;;;;;;;;;;;;;2214901;59;2187;-15
2023/03/07 10:05:58;;;;;;;;;;;;;;;;;;2214559;66;2011;-17
2023/03/07 10:08:30;;;;;;;;;;;;;;;;;;2213760;66;1123;-16
2023/03/07 10:11:15;;;;;;;;;;;;;;;;;;2215021;66;1297;-16
2023/03/07 10:13:45;;;;;;;;;;;;;;;;;;2215072;66;1134;-16
2023/03/07 10:16:28;;;;;;;;;;;;;;;;;;2213530;67;1428;-18
2023/03/07 10:19:01;;;;;;;;;;;;;;;;;;2213290;66;1137;-17
2023/03/07 10:21:31;;;;;;;;;;;;;;;;;;2214908;62;1200;-16
2023/03/07 10:24:11;;;;;;;;;;;;;;;;;;2214459;66;1750;-17
2023/03/07 10:26:56;;;;;;;;;;;;;;;;;;2213824;66;1936;-18
2023/03/07 10:29:30;;;;;;;;;;;;;;;;;;2214309;66;1113;-16
2023/03/07 10:32:19;;;;;;;;;;;;;;;;;;2214925;66;1840;-18
2023/03/07 10:35:09;;;;;;;;;;;;;;;;;;2213632;66;1951;-17
2023/03/07 10:37:50;;;;;;;;;;;;;;;;;;2212536;66;2350;-17
2023/03/07 10:40:22;;;;;;;;;;;;;;;;;;2214005;66;1297;-18
2023/03/07 10:42:53;;;;;;;;;;;;;;;;;;2214692;66;2298;-17
2023/03/07 10:45:26;;;;;;;;;;;;;;;;;;2214169;66;1793;-17
2023/03/07 10:48:06;;;;;;;;;;;;;;;;;;2214172;66;1616;-18
2023/03/07 10:50:40;;;;;;;;;;;;;;;;;;2214186;66;1328;-18
2023/03/07 10:53:26;;;;;;;;;;;;;;;;;;2213966;66;1536;-16
2023/03/07 10:56:08;;;;;;;;;;;;;;;;;;2214326;66;1934;-18
2023/03/07 10:58:38;;;;;;;;;;;;;;;;;;2214107;66;1479;-18
2023/03/07 11:01:14;;;;;;;;;;;;;;;;;;2214633;66;1196;-17
2023/03/07 11:03:53;;;;;;;;;;;;;;;;;;2214201;66;1302;-17
2023/03/07 11:06:38;;;;;;;;;;;;;;;;;;2214109;66;1742;-17
2023/03/07 11:09:11;;;;;;;;;;;;;;;;;;2213455;66;1300;-16
2023/03/07 11:11:48;;;;;;;;;;;;;;;;;;2216537;66;1185;-17
2023/03/07 11:14:20;;;;;;;;;;;;;;;;;;2214042;66;1705;-17
2023/03/07 11:16:50;;;;;;;;;;;;;;;;;;2214539;53;2100;-24
2023/03/07 11:19:35;;;;;;;;;;;;;;;;;;2211410;67;1576;-24
2023/03/07 11:22:14;;;;;;;;;;;;;;;;;;2212095;66;1416;-24
2023/03/07 11:25:04;;;;;;;;;;;;;;;;;;2212024;67;1623;-24
2023/03/07 11:27:38;;;;;;;;;;;;;;;;;;2212575;66;1650;-24
2023/03/07 11:30:23;;;;;;;;;;;;;;;;;;2211962;67;1669;-24
2023/03/07 11:33:05;;;;;;;;;;;;;;;;;;2211727;67;1134;-24
2023/03/07 11:36:14;;;;;;;;;;;;;;;;;;2214663;66;1937;-23
2023/03/07 11:38:48;;;;;;;;;;;;;;;;;;2205242;67;1322;-24
2023/03/07 11:41:27;;;;;;;;;;;;;;;;;;2202555;67;1067;-24
2023/03/07 11:44:16;;;;;;;;;;;;;;;;;;2208407;66;1573;-24
2023/03/07 11:46:49;;;;;;;;;;;;;;;;;;2213043;59;1232;-23
2023/03/07 11:49:23;;;;;;;;;;;;;;;;;;2211860;67;1083;-23
2023/03/07 11:52:08;;;;;;;;;;;;;;;;;;2211731;67;1437;-23
2023/03/07 11:55:03;;;;;;;;;;;;;;;;;;2211473;67;1639;-23
2023/03/07 11:57:55;;;;;;;;;;;;;;;;;;2212439;67;1304;-23
2023/03/07 12:00:34;;;;;;;;;;;;;;;;;;2212006;67;1351;-23
2023/03/07 12:03:36;;;;;;;;;;;;;;;;;;2211854;67;1175;-23
2023/03/07 12:06:25;;;;;;;;;;;;;;;;;;2205202;67;1581;-23
2023/03/07 12:08:56;;;;;;;;;;;;;;;;;;2214337;67;1742;-23
2023/03/07 12:11:39;;;;;;;;;;;;;;;;;;2214386;67;1193;-24
2023/03/07 12:14:25;;;;;;;;;;;;;;;;;;2212034;67;1590;-24
2023/03/07 12:17:04;;;;;;;;;;;;;;;;;;2211414;59;1995;-24
2023/03/07 12:19:41;;;;;;;;;;;;;;;;;;2211394;67;1617;-24
2023/03/07 12:22:11;;;;;;;;;;;;;;;;;;2212073;67;1320;-24
2023/03/07 12:24:44;;;;;;;;;;;;;;;;;;2212426;67;1170;-23
2023/03/07 12:27:18;;;;;;;;;;;;;;;;;;2211840;59;1959;-24
2023/03/07 12:29:52;;;;;;;;;;;;;;;;;;2211937;67;1822;-24
2023/03/07 12:32:23;;;;;;;;;;;;;;;;;;2212757;67;1843;-24
2023/03/07 12:34:54;;;;;;;;;;;;;;;;;;2211872;67;1990;-24
2023/03/07 12:37:26;;;;;;;;;;;;;;;;;;2211684;67;1213;-24
2023/03/07 12:40:08;;;;;;;;;;;;;;;;;;2214389;66;1344;-24
2023/03/07 12:42:57;;;;;;;;;;;;;;;;;;2211229;59;1573;-24
2023/03/07 12:45:31;;;;;;;;;;;;;;;;;;2212410;67;1145;-24
2023/03/07 12:48:01;;;;;;;;;;;;;;;;;;2211412;67;1773;-24
2023/03/07 12:50:46;;;;;;;;;;;;;;;;;;2212759;59;1057;-24
2023/03/07 12:53:22;;;;;;;;;;;;;;;;;;2212610;67;1141;-24
2023/03/07 12:55:55;;;;;;;;;;;;;;;;;;2211968;67;1941;-24
2023/03/07 12:58:38;;;;;;;;;;;;;;;;;;2211977;67;1161;-24
2023/03/07 13:01:15;;;;;;;;;;;;;;;;;;2213061;67;1447;-24
2023/03/07 13:04:03;;;;;;;;;;;;;;;;;;2211910;66;1786;-24
2023/03/07 13:06:37;;;;;;;;;;;;;;;;;;2212558;67;1239;-24
2023/03/07 13:09:12;;;;;;;;;;;;;;;;;;2211877;59;1874;-24
2023/03/07 13:12:02;;;;;;;;;;;;;;;;;;2212854;67;1189;-24
2023/03/07 13:14:42;;;;;;;;;;;;;;;;;;2213064;67;1088;-23
2023/03/07 13:17:32;;;;;;;;;;;;;;;;;;2213590;59;2066;-23
2023/03/07 13:20:18;;;;;;;;;;;;;;;;;;2212636;67;2080;-23
2023/03/07 13:22:48;;;;;;;;;;;;;;;;;;2212304;67;1572;-23
2023/03/07 13:25:21;;;;;;;;;;;;;;;;;;2212808;67;1322;-23
2023/03/07 13:27:53;;;;;;;;;;;;;;;;;;2213093;67;1291;-23
2023/03/07 13:30:28;;;;;;;;;;;;;;;;;;2212061;67;1665;-23
2023/03/07 13:33:00;;;;;;;;;;;;;;;;;;2212367;66;1376;-23
2023/03/07 13:35:30;;;;;;;;;;;;;;;;;;2212461;67;1912;-23
2023/03/07 13:38:06;;;;;;;;;;;;;;;;;;2212180;67;1323;-22
2023/03/07 13:40:37;;;;;;;;;;;;;;;;;;2212771;67;1302;-23
2023/03/07 13:43:25;;;;;;;;;;;;;;;;;;2212065;67;1698;-23
2023/03/07 13:45:56;;;;;;;;;;;;;;;;;;2215153;67;1496;-23
2023/03/07 13:48:29;;;;;;;;;;;;;;;;;;2213778;66;1275;-23
2023/03/07 13:50:59;;;;;;;;;;;;;;;;;;2212942;67;1467;-23
2023/03/07 13:53:34;;;;;;;;;;;;;;;;;;2212514;67;1108;-23
2023/03/07 13:56:14;;;;;;;;;;;;;;;;;;2212436;67;1938;-23
2023/03/07 13:58:47;;;;;;;;;;;;;;;;;;2212695;67;1817;-23
2023/03/07 14:01:38;;;;;;;;;;;;;;;;;;2212985;67;1140;-23
2023/03/07 14:04:27;;;;;;;;;;;;;;;;;;2214799;66;1160;-22
2023/03/07 14:07:02;;;;;;;;;;;;;;;;;;2212552;67;1822;-22
2023/03/07 14:09:48;;;;;;;;;;;;;;;;;;2212259;67;2133;-23
2023/03/07 14:12:21;;;;;;;;;;;;;;;;;;2212644;66;1917;-22
2023/03/07 14:14:51;;;;;;;;;;;;;;;;;;2212457;67;1968;-23
2023/03/07 14:17:33;;;;;;;;;;;;;;;;;;2212875;59;1277;-23
2023/03/07 14:20:22;;;;;;;;;;;;;;;;;;2215032;67;1597;-23
2023/03/07 14:23:11;;;;;;;;;;;;;;;;;;2212776;67;1205;-23
2023/03/07 14:25:45;;;;;;;;;;;;;;;;;;2212176;67;1678;-23
2023/03/07 14:28:18;;;;;;;;;;;;;;;;;;2211568;67;1129;-23
2023/03/07 14:30:59;;;;;;;;;;;;;;;;;;2212457;59;1715;-23
2023/03/07 14:33:30;;;;;;;;;;;;;;;;;;2212696;67;2040;-23
2023/03/07 14:36:01;;;;;;;;;;;;;;;;;;2212181;67;1979;-23
2023/03/07 14:38:31;;;;;;;;;;;;;;;;;;2211626;67;1951;-23
2023/03/07 14:41:01;;;;;;;;;;;;;;;;;;2212339;66;1408;-22
2023/03/07 14:43:44;;;;;;;;;;;;;;;;;;2212117;59;1819;-22
2023/03/07 14:46:14;;;;;;;;;;;;;;;;;;2212313;59;1757;-22
2023/03/07 14:48:59;;;;;;;;;;;;;;;;;;2212183;67;1533;-23
2023/03/07 14:51:29;;;;;;;;;;;;;;;;;;2212058;67;1332;-22
2023/03/07 14:54:04;;;;;;;;;;;;;;;;;;2212639;67;1746;-23
2023/03/07 14:56:34;;;;;;;;;;;;;;;;;;2211454;66;1937;-23
2023/03/07 14:59:06;;;;;;;;;;;;;;;;;;2211770;66;1620;-23
2023/03/07 15:01:37;;;;;;;;;;;;;;;;;;2212452;67;1746;-22
2023/03/07 15:04:20;;;;;;;;;;;;;;;;;;2212174;67;1103;-23
2023/03/07 15:06:55;;;;;;;;;;;;;;;;;;2212171;59;1270;-22
2023/03/07 15:09:26;;;;;;;;;;;;;;;;;;2212498;67;1178;-22
2023/03/07 15:11:59;;;;;;;;;;;;;;;;;;2212478;67;1205;-22
2023/03/07 15:14:46;;;;;;;;;;;;;;;;;;2212284;67;1181;-22
2023/03/07 15:17:22;;;;;;;;;;;;;;;;;;2212698;59;1940;-23
2023/03/07 15:19:54;;;;;;;;;;;;;;;;;;2212071;67;1348;-22
2023/03/07 15:22:26;;;;;;;;;;;;;;;;;;2212221;67;1343;-24
2023/03/07 15:24:57;;;;;;;;;;;;;;;;;;2212667;66;1264;-22
2023/03/07 15:27:30;;;;;;;;;;;;;;;;;;2212300;67;1601;-22
2023/03/07 15:30:01;;;;;;;;;;;;;;;;;;2212305;66;1332;-23
2023/03/07 15:32:37;;;;;;;;;;;;;;;;;;2212071;66;1186;-24
2023/03/07 15:35:07;;;;;;;;;;;;;;;;;;2214471;66;2007;-24
2023/03/07 15:37:51;;;;;;;;;;;;;;;;;;2212114;66;1752;-24
2023/03/07 15:40:25;;;;;;;;;;;;;;;;;;2211807;67;1168;-22
2023/03/07 15:43:14;;;;;;;;;;;;;;;;;;2212504;67;1626;-22
2023/03/07 15:45:58;;;;;;;;;;;;;;;;;;2211916;67;1793;-22
2023/03/07 15:48:58;;;;;;;;;;;;;;;;;;2212157;67;1205;-22
2023/03/07 15:51:33;;;;;;;;;;;;;;;;;;2208938;67;1702;-22
2023/03/07 15:54:19;;;;;;;;;;;;;;;;;;2212040;67;1365;-22
2023/03/07 15:56:58;;;;;;;;;;;;;;;;;;2211554;67;1943;-22
2023/03/07 15:59:30;;;;;;;;;;;;;;;;;;2212288;67;1244;-22
2023/03/07 16:02:19;;;;;;;;;;;;;;;;;;2211788;66;1393;-23
2023/03/07 16:04:52;;;;;;;;;;;;;;;;;;2211937;67;1153;-22
2023/03/07 16:07:22;;;;;;;;;;;;;;;;;;2211676;66;1427;-23
2023/03/07 16:09:52;;;;;;;;;;;;;;;;;;2211710;67;1792;-25
2023/03/07 16:12:24;;;;;;;;;;;;;;;;;;2211976;67;1777;-24
2023/03/07 16:14:54;;;;;;;;;;;;;;;;;;2211777;66;1941;-24
2023/03/07 16:17:35;;;;;;;;;;;;;;;;;;2214092;66;1255;-23
2023/03/07 16:20:16;;;;;;;;;;;;;;;;;;2210528;67;1739;-24
2023/03/07 16:22:46;;;;;;;;;;;;;;;;;;2209365;59;2442;-22
2023/03/07 16:25:17;;;;;;;;;;;;;;;;;;2210235;67;1353;-24
2023/03/07 16:27:49;;;;;;;;;;;;;;;;;;2210563;67;1209;-24
2023/03/07 16:30:24;;;;;;;;;;;;;;;;;;2209953;67;1474;-24
2023/03/07 16:32:55;;;;;;;;;;;;;;;;;;2210391;67;1173;-24
2023/03/07 16:35:26;;;;;;;;;;;;;;;;;;2211235;66;1952;-24
2023/03/07 16:37:56;;;;;;;;;;;;;;;;;;2211372;67;1828;-24
2023/03/07 16:40:27;;;;;;;;;;;;;;;;;;2210455;59;2159;-24
2023/03/07 16:42:57;;;;;;;;;;;;;;;;;;2209426;59;1762;-24
2023/03/07 16:45:29;;;;;;;;;;;;;;;;;;2210832;59;2015;-24
2023/03/07 16:48:01;;;;;;;;;;;;;;;;;;2210721;67;1336;-24
2023/03/07 16:50:32;;;;;;;;;;;;;;;;;;2210712;67;1702;-24
2023/03/07 16:53:05;;;;;;;;;;;;;;;;;;2211136;67;1708;-24
2023/03/07 16:55:37;;;;;;;;;;;;;;;;;;2209178;59;2261;-24
2023/03/07 16:58:14;;;;;;;;;;;;;;;;;;2211349;67;1099;-24
2023/03/07 17:00:44;;;;;;;;;;;;;;;;;;2211417;67;1518;-24
2023/03/07 17:03:15;;;;;;;;;;;;;;;;;;2211371;67;1660;-24
2023/03/07 17:05:46;;;;;;;;;;;;;;;;;;2211696;67;1372;-24
2023/03/07 17:08:17;;;;;;;;;;;;;;;;;;2212672;67;1914;-24
2023/03/07 17:10:48;;;;;;;;;;;;;;;;;;2211903;67;1164;-24
2023/03/07 17:13:18;;;;;;;;;;;;;;;;;;2212269;67;1579;-24
2023/03/07 17:15:49;;;;;;;;;;;;;;;;;;2212684;59;1989;-24
2023/03/07 17:18:21;;;;;;;;;;;;;;;;;;2213014;67;1092;-25
2023/03/07 17:20:51;;;;;;;;;;;;;;;;;;2212095;66;1782;-25
2023/03/07 17:23:21;;;;;;;;;;;;;;;;;;2213764;67;1657;-25
2023/03/07 17:25:52;;;;;;;;;;;;;;;;;;2213474;67;1241;-25
2023/03/07 17:28:22;;;;;;;;;;;;;;;;;;2213353;66;1409;-25
2023/03/07 17:30:52;;;;;;;;;;;;;;;;;;2212520;67;1744;-25
2023/03/07 17:33:22;;;;;;;;;;;;;;;;;;2212214;67;1176;-25
2023/03/07 17:35:53;;;;;;;;;;;;;;;;;;2215029;66;2002;-25
2023/03/07 17:38:23;;;;;;;;;;;;;;;;;;2212133;58;1276;-25
2023/03/07 17:40:54;;;;;;;;;;;;;;;;;;2212311;59;1265;-25
2023/03/07 17:43:25;;;;;;;;;;;;;;;;;;2212251;67;1642;-25
2023/03/07 17:45:55;;;;;;;;;;;;;;;;;;2212850;67;1338;-25
2023/03/07 17:48:25;;;;;;;;;;;;;;;;;;2212093;67;1121;-25